sensor_id;sensor_type;location;lat;lon;timestamp;temperature;humidity
12315;DHT22;23886;46.614;14.276;2022-08-20T00:01:36;16.60;99.90
12315;DHT22;23886;46.614;14.276;2022-08-20T00:04:03;16.60;99.90
12315;DHT22;23886;46.614;14.276;2022-08-20T00:06:30;16.70;99.90
12315;DHT22;23886;46.614;14.276;2022-08-20T00:08:58;16.70;99.90
12315;DHT22;23886;46.614;14.276;2022-08-20T00:11:26;16.70;99.90
12315;DHT22;23886;46.614;14.276;2022-08-20T00:13:57;16.70;99.90
12315;DHT22;23886;46.614;14.276;2022-08-20T00:16:26;16.60;99.90
12315;DHT22;23886;46.614;14.276;2022-08-20T00:18:57;16.60;99.90
12315;DHT22;23886;46.614;14.276;2022-08-20T00:21:24;16.50;99.90
12315;DHT22;23886;46.614;14.276;2022-08-20T00:23:53;16.40;99.90
12315;DHT22;23886;46.614;14.276;2022-08-20T00:26:21;16.30;99.90
12315;DHT22;23886;46.614;14.276;2022-08-20T00:28:49;16.30;99.90
12315;DHT22;23886;46.614;14.276;2022-08-20T00:31:20;16.20;99.90
12315;DHT22;23886;46.614;14.276;2022-08-20T00:33:49;16.10;99.90
12315;DHT22;23886;46.614;14.276;2022-08-20T00:36:17;16.10;99.90
12315;DHT22;23886;46.614;14.276;2022-08-20T00:38:45;16.10;99.90
12315;DHT22;23886;46.614;14.276;2022-08-20T00:41:16;15.90;99.90
12315;DHT22;23886;46.614;14.276;2022-08-20T00:43:46;15.90;99.90
12315;DHT22;23886;46.614;14.276;2022-08-20T00:46:22;15.80;99.90
12315;DHT22;23886;46.614;14.276;2022-08-20T00:48:51;15.80;99.90
12315;DHT22;23886;46.614;14.276;2022-08-20T00:51:25;15.90;99.90
12315;DHT22;23886;46.614;14.276;2022-08-20T00:53:57;16.00;99.90
12315;DHT22;23886;46.614;14.276;2022-08-20T00:56:24;16.10;99.90
12315;DHT22;23886;46.614;14.276;2022-08-20T00:58:51;16.10;99.90
12315;DHT22;23886;46.614;14.276;2022-08-20T01:01:20;16.10;99.90
12315;DHT22;23886;46.614;14.276;2022-08-20T01:03:50;16.10;99.90
12315;DHT22;23886;46.614;14.276;2022-08-20T01:06:21;16.00;99.90
12315;DHT22;23886;46.614;14.276;2022-08-20T01:08:49;15.90;99.90
12315;DHT22;23886;46.614;14.276;2022-08-20T01:11:16;15.90;99.90
12315;DHT22;23886;46.614;14.276;2022-08-20T01:13:47;15.80;99.90
12315;DHT22;23886;46.614;14.276;2022-08-20T01:16:17;15.80;99.90
12315;DHT22;23886;46.614;14.276;2022-08-20T01:18:47;15.80;99.90
12315;DHT22;23886;46.614;14.276;2022-08-20T01:21:19;15.70;99.90
12315;DHT22;23886;46.614;14.276;2022-08-20T01:23:56;15.80;99.90
12315;DHT22;23886;46.614;14.276;2022-08-20T01:26:28;15.80;99.90
12315;DHT22;23886;46.614;14.276;2022-08-20T01:28:59;15.90;99.90
12315;DHT22;23886;46.614;14.276;2022-08-20T01:31:30;15.70;99.90
12315;DHT22;23886;46.614;14.276;2022-08-20T01:33:59;15.60;99.90
12315;DHT22;23886;46.614;14.276;2022-08-20T01:36:30;15.60;99.90
12315;DHT22;23886;46.614;14.276;2022-08-20T01:38:57;15.50;99.90
12315;DHT22;23886;46.614;14.276;2022-08-20T01:41:43;15.60;99.90
12315;DHT22;23886;46.614;14.276;2022-08-20T01:44:13;15.60;99.90
12315;DHT22;23886;46.614;14.276;2022-08-20T01:46:42;15.50;99.90
12315;DHT22;23886;46.614;14.276;2022-08-20T01:49:16;15.50;99.90
12315;DHT22;23886;46.614;14.276;2022-08-20T01:51:43;15.40;99.90
12315;DHT22;23886;46.614;14.276;2022-08-20T01:54:11;15.30;99.90
12315;DHT22;23886;46.614;14.276;2022-08-20T01:56:51;15.30;99.90
12315;DHT22;23886;46.614;14.276;2022-08-20T01:59:19;15.30;99.90
12315;DHT22;23886;46.614;14.276;2022-08-20T02:01:47;15.20;99.90
12315;DHT22;23886;46.614;14.276;2022-08-20T02:04:14;15.20;99.90
12315;DHT22;23886;46.614;14.276;2022-08-20T02:06:45;15.20;99.90
12315;DHT22;23886;46.614;14.276;2022-08-20T02:09:12;15.20;99.90
12315;DHT22;23886;46.614;14.276;2022-08-20T02:11:40;15.20;99.90
12315;DHT22;23886;46.614;14.276;2022-08-20T02:14:09;15.30;99.90
12315;DHT22;23886;46.614;14.276;2022-08-20T02:16:39;15.40;99.90
12315;DHT22;23886;46.614;14.276;2022-08-20T02:19:09;15.50;99.90
12315;DHT22;23886;46.614;14.276;2022-08-20T02:21:40;15.40;99.90
12315;DHT22;23886;46.614;14.276;2022-08-20T02:24:07;15.40;99.90
12315;DHT22;23886;46.614;14.276;2022-08-20T02:26:35;15.30;99.90
12315;DHT22;23886;46.614;14.276;2022-08-20T02:29:05;15.30;99.90
12315;DHT22;23886;46.614;14.276;2022-08-20T02:31:35;15.30;99.90
12315;DHT22;23886;46.614;14.276;2022-08-20T02:34:04;15.20;99.90
12315;DHT22;23886;46.614;14.276;2022-08-20T02:36:33;15.20;99.90
12315;DHT22;23886;46.614;14.276;2022-08-20T02:39:03;15.10;99.90
12315;DHT22;23886;46.614;14.276;2022-08-20T02:41:31;15.10;99.90
12315;DHT22;23886;46.614;14.276;2022-08-20T02:43:58;15.00;99.90
12315;DHT22;23886;46.614;14.276;2022-08-20T02:46:25;15.00;99.90
12315;DHT22;23886;46.614;14.276;2022-08-20T02:48:54;15.00;99.90
12315;DHT22;23886;46.614;14.276;2022-08-20T02:51:22;15.10;99.90
12315;DHT22;23886;46.614;14.276;2022-08-20T02:53:49;15.00;99.90
12315;DHT22;23886;46.614;14.276;2022-08-20T02:56:17;14.90;99.90
12315;DHT22;23886;46.614;14.276;2022-08-20T02:58:45;14.90;99.90
12315;DHT22;23886;46.614;14.276;2022-08-20T03:01:15;14.80;99.90
12315;DHT22;23886;46.614;14.276;2022-08-20T03:03:43;14.80;99.90
12315;DHT22;23886;46.614;14.276;2022-08-20T03:06:12;14.70;99.90
12315;DHT22;23886;46.614;14.276;2022-08-20T03:08:39;14.50;99.90
12315;DHT22;23886;46.614;14.276;2022-08-20T03:11:06;14.50;99.90
12315;DHT22;23886;46.614;14.276;2022-08-20T03:13:34;14.50;99.90
12315;DHT22;23886;46.614;14.276;2022-08-20T03:16:03;14.50;99.90
12315;DHT22;23886;46.614;14.276;2022-08-20T03:18:32;14.40;99.90
12315;DHT22;23886;46.614;14.276;2022-08-20T03:21:00;14.30;99.90
12315;DHT22;23886;46.614;14.276;2022-08-20T03:23:28;14.30;99.90
12315;DHT22;23886;46.614;14.276;2022-08-20T03:25:56;14.30;99.90
12315;DHT22;23886;46.614;14.276;2022-08-20T03:28:23;14.30;99.90
12315;DHT22;23886;46.614;14.276;2022-08-20T03:30:50;14.40;99.90
12315;DHT22;23886;46.614;14.276;2022-08-20T03:33:18;14.40;99.90
12315;DHT22;23886;46.614;14.276;2022-08-20T03:35:46;14.50;99.90
12315;DHT22;23886;46.614;14.276;2022-08-20T03:38:14;14.60;99.90
12315;DHT22;23886;46.614;14.276;2022-08-20T03:40:43;14.50;99.90
12315;DHT22;23886;46.614;14.276;2022-08-20T03:43:11;14.50;99.90
12315;DHT22;23886;46.614;14.276;2022-08-20T03:45:40;14.50;99.90
12315;DHT22;23886;46.614;14.276;2022-08-20T03:48:10;14.60;99.90
12315;DHT22;23886;46.614;14.276;2022-08-20T03:50:37;14.60;99.90
12315;DHT22;23886;46.614;14.276;2022-08-20T03:53:07;14.70;99.90
12315;DHT22;23886;46.614;14.276;2022-08-20T03:55:35;14.60;99.90
12315;DHT22;23886;46.614;14.276;2022-08-20T03:58:06;14.60;99.90
12315;DHT22;23886;46.614;14.276;2022-08-20T04:00:39;14.30;99.90
12315;DHT22;23886;46.614;14.276;2022-08-20T04:03:07;14.30;99.90
12315;DHT22;23886;46.614;14.276;2022-08-20T04:05:36;14.30;99.90
12315;DHT22;23886;46.614;14.276;2022-08-20T04:08:06;14.30;99.90
12315;DHT22;23886;46.614;14.276;2022-08-20T04:10:34;14.30;99.90
12315;DHT22;23886;46.614;14.276;2022-08-20T04:13:03;14.40;99.90
12315;DHT22;23886;46.614;14.276;2022-08-20T04:15:32;14.30;99.90
12315;DHT22;23886;46.614;14.276;2022-08-20T04:18:01;14.10;99.90
12315;DHT22;23886;46.614;14.276;2022-08-20T04:20:33;14.20;99.90
12315;DHT22;23886;46.614;14.276;2022-08-20T04:23:01;14.30;99.90
12315;DHT22;23886;46.614;14.276;2022-08-20T04:25:29;14.40;99.90
12315;DHT22;23886;46.614;14.276;2022-08-20T04:27:58;14.60;99.90
12315;DHT22;23886;46.614;14.276;2022-08-20T04:30:28;14.60;99.90
12315;DHT22;23886;46.614;14.276;2022-08-20T04:32:57;14.50;99.90
12315;DHT22;23886;46.614;14.276;2022-08-20T04:35:25;14.60;99.90
12315;DHT22;23886;46.614;14.276;2022-08-20T04:37:57;14.70;99.90
12315;DHT22;23886;46.614;14.276;2022-08-20T04:40:24;14.80;99.90
12315;DHT22;23886;46.614;14.276;2022-08-20T04:43:09;14.80;99.90
12315;DHT22;23886;46.614;14.276;2022-08-20T04:45:38;14.90;99.90
12315;DHT22;23886;46.614;14.276;2022-08-20T04:48:06;15.00;99.90
12315;DHT22;23886;46.614;14.276;2022-08-20T04:50:35;15.20;99.90
12315;DHT22;23886;46.614;14.276;2022-08-20T04:53:04;15.30;99.90
12315;DHT22;23886;46.614;14.276;2022-08-20T04:55:32;15.30;99.90
12315;DHT22;23886;46.614;14.276;2022-08-20T04:58:02;15.40;99.90
12315;DHT22;23886;46.614;14.276;2022-08-20T05:00:30;15.70;99.90
12315;DHT22;23886;46.614;14.276;2022-08-20T05:02:59;15.60;99.90
12315;DHT22;23886;46.614;14.276;2022-08-20T05:05:26;15.70;99.90
12315;DHT22;23886;46.614;14.276;2022-08-20T05:07:53;15.60;99.90
12315;DHT22;23886;46.614;14.276;2022-08-20T05:10:21;15.70;99.90
12315;DHT22;23886;46.614;14.276;2022-08-20T05:12:50;15.80;99.90
12315;DHT22;23886;46.614;14.276;2022-08-20T05:15:17;16.10;99.90
12315;DHT22;23886;46.614;14.276;2022-08-20T05:17:45;16.30;99.90
12315;DHT22;23886;46.614;14.276;2022-08-20T05:20:17;16.40;99.90
12315;DHT22;23886;46.614;14.276;2022-08-20T05:22:44;16.40;99.90
12315;DHT22;23886;46.614;14.276;2022-08-20T05:25:11;16.40;99.90
12315;DHT22;23886;46.614;14.276;2022-08-20T05:27:39;16.50;99.90
12315;DHT22;23886;46.614;14.276;2022-08-20T05:30:09;16.50;99.90
12315;DHT22;23886;46.614;14.276;2022-08-20T05:32:36;16.50;99.90
12315;DHT22;23886;46.614;14.276;2022-08-20T05:35:05;16.60;99.90
12315;DHT22;23886;46.614;14.276;2022-08-20T05:37:36;16.60;99.90
12315;DHT22;23886;46.614;14.276;2022-08-20T05:40:07;16.60;99.90
12315;DHT22;23886;46.614;14.276;2022-08-20T05:42:36;16.60;99.90
12315;DHT22;23886;46.614;14.276;2022-08-20T05:45:04;16.80;99.90
12315;DHT22;23886;46.614;14.276;2022-08-20T05:47:31;16.90;99.90
12315;DHT22;23886;46.614;14.276;2022-08-20T05:49:58;17.00;99.90
12315;DHT22;23886;46.614;14.276;2022-08-20T05:52:26;17.10;99.90
12315;DHT22;23886;46.614;14.276;2022-08-20T05:54:56;17.00;99.90
12315;DHT22;23886;46.614;14.276;2022-08-20T05:57:23;16.90;99.90
12315;DHT22;23886;46.614;14.276;2022-08-20T05:59:50;17.00;99.90
12315;DHT22;23886;46.614;14.276;2022-08-20T06:02:17;17.00;99.90
12315;DHT22;23886;46.614;14.276;2022-08-20T06:05:02;17.10;99.90
12315;DHT22;23886;46.614;14.276;2022-08-20T06:07:29;17.20;99.90
12315;DHT22;23886;46.614;14.276;2022-08-20T06:09:59;17.20;99.90
12315;DHT22;23886;46.614;14.276;2022-08-20T06:12:26;17.30;99.90
12315;DHT22;23886;46.614;14.276;2022-08-20T06:14:53;17.30;99.90
12315;DHT22;23886;46.614;14.276;2022-08-20T06:17:20;17.30;99.90
12315;DHT22;23886;46.614;14.276;2022-08-20T06:19:48;17.40;99.90
12315;DHT22;23886;46.614;14.276;2022-08-20T06:22:15;17.30;99.90
12315;DHT22;23886;46.614;14.276;2022-08-20T06:24:42;17.40;99.90
12315;DHT22;23886;46.614;14.276;2022-08-20T06:27:13;17.30;99.90
12315;DHT22;23886;46.614;14.276;2022-08-20T06:29:40;17.40;99.90
12315;DHT22;23886;46.614;14.276;2022-08-20T06:32:08;17.40;99.90
12315;DHT22;23886;46.614;14.276;2022-08-20T06:34:35;17.40;99.90
12315;DHT22;23886;46.614;14.276;2022-08-20T06:37:08;17.60;99.90
12315;DHT22;23886;46.614;14.276;2022-08-20T06:39:38;17.80;99.90
12315;DHT22;23886;46.614;14.276;2022-08-20T06:42:06;17.70;99.90
12315;DHT22;23886;46.614;14.276;2022-08-20T06:44:34;17.80;99.90
12315;DHT22;23886;46.614;14.276;2022-08-20T06:47:02;17.90;99.90
12315;DHT22;23886;46.614;14.276;2022-08-20T06:49:30;18.00;99.90
12315;DHT22;23886;46.614;14.276;2022-08-20T06:51:57;18.20;99.90
12315;DHT22;23886;46.614;14.276;2022-08-20T06:54:24;18.50;99.90
12315;DHT22;23886;46.614;14.276;2022-08-20T06:56:51;18.50;99.90
12315;DHT22;23886;46.614;14.276;2022-08-20T06:59:19;18.60;99.90
12315;DHT22;23886;46.614;14.276;2022-08-20T07:01:48;19.10;99.90
12315;DHT22;23886;46.614;14.276;2022-08-20T07:04:15;19.10;99.90
12315;DHT22;23886;46.614;14.276;2022-08-20T07:06:42;19.20;99.90
12315;DHT22;23886;46.614;14.276;2022-08-20T07:09:09;19.50;99.90
12315;DHT22;23886;46.614;14.276;2022-08-20T07:11:36;19.60;99.90
12315;DHT22;23886;46.614;14.276;2022-08-20T07:14:03;19.60;99.90
12315;DHT22;23886;46.614;14.276;2022-08-20T07:16:30;19.60;99.90
12315;DHT22;23886;46.614;14.276;2022-08-20T07:18:59;19.50;99.90
12315;DHT22;23886;46.614;14.276;2022-08-20T07:21:26;19.40;99.90
12315;DHT22;23886;46.614;14.276;2022-08-20T07:23:53;19.40;99.90
12315;DHT22;23886;46.614;14.276;2022-08-20T07:26:20;19.40;99.90
12315;DHT22;23886;46.614;14.276;2022-08-20T07:28:47;19.30;99.90
12315;DHT22;23886;46.614;14.276;2022-08-20T07:31:14;19.40;99.90
12315;DHT22;23886;46.614;14.276;2022-08-20T07:34:00;19.60;99.90
12315;DHT22;23886;46.614;14.276;2022-08-20T07:36:27;19.70;99.90
12315;DHT22;23886;46.614;14.276;2022-08-20T07:38:54;19.80;99.90
12315;DHT22;23886;46.614;14.276;2022-08-20T07:41:21;19.60;99.90
12315;DHT22;23886;46.614;14.276;2022-08-20T07:43:48;19.60;99.90
12315;DHT22;23886;46.614;14.276;2022-08-20T07:46:18;19.30;99.90
12315;DHT22;23886;46.614;14.276;2022-08-20T07:48:47;19.40;99.90
12315;DHT22;23886;46.614;14.276;2022-08-20T07:51:17;19.30;99.90
12315;DHT22;23886;46.614;14.276;2022-08-20T07:53:46;19.60;99.90
12315;DHT22;23886;46.614;14.276;2022-08-20T07:56:16;19.50;99.90
12315;DHT22;23886;46.614;14.276;2022-08-20T07:58:46;19.80;99.90
12315;DHT22;23886;46.614;14.276;2022-08-20T08:01:14;19.70;99.90
12315;DHT22;23886;46.614;14.276;2022-08-20T08:03:41;20.00;99.90
12315;DHT22;23886;46.614;14.276;2022-08-20T08:06:08;20.00;99.90
12315;DHT22;23886;46.614;14.276;2022-08-20T08:08:37;19.90;99.90
12315;DHT22;23886;46.614;14.276;2022-08-20T08:11:06;19.60;99.90
12315;DHT22;23886;46.614;14.276;2022-08-20T08:13:38;19.60;99.90
12315;DHT22;23886;46.614;14.276;2022-08-20T08:16:07;19.70;99.90
12315;DHT22;23886;46.614;14.276;2022-08-20T08:18:36;19.90;99.90
12315;DHT22;23886;46.614;14.276;2022-08-20T08:21:06;20.10;99.90
12315;DHT22;23886;46.614;14.276;2022-08-20T08:23:34;20.00;99.90
12315;DHT22;23886;46.614;14.276;2022-08-20T08:26:02;20.00;99.90
12315;DHT22;23886;46.614;14.276;2022-08-20T08:28:30;19.90;99.90
12315;DHT22;23886;46.614;14.276;2022-08-20T08:30:57;19.80;99.90
12315;DHT22;23886;46.614;14.276;2022-08-20T08:33:26;19.50;99.90
12315;DHT22;23886;46.614;14.276;2022-08-20T08:35:54;19.50;99.90
12315;DHT22;23886;46.614;14.276;2022-08-20T08:38:21;19.30;99.90
12315;DHT22;23886;46.614;14.276;2022-08-20T08:40:49;19.20;99.90
12315;DHT22;23886;46.614;14.276;2022-08-20T08:43:21;19.30;99.90
12315;DHT22;23886;46.614;14.276;2022-08-20T08:45:55;19.30;99.90
12315;DHT22;23886;46.614;14.276;2022-08-20T08:48:29;19.30;99.90
12315;DHT22;23886;46.614;14.276;2022-08-20T08:50:57;19.30;99.90
12315;DHT22;23886;46.614;14.276;2022-08-20T08:53:30;19.50;99.90
12315;DHT22;23886;46.614;14.276;2022-08-20T08:55:59;19.60;99.90
12315;DHT22;23886;46.614;14.276;2022-08-20T08:58:27;19.60;99.90
12315;DHT22;23886;46.614;14.276;2022-08-20T09:00:54;19.50;99.90
12315;DHT22;23886;46.614;14.276;2022-08-20T09:03:24;19.60;99.90
12315;DHT22;23886;46.614;14.276;2022-08-20T09:05:54;19.70;99.90
12315;DHT22;23886;46.614;14.276;2022-08-20T09:08:25;19.80;99.90
12315;DHT22;23886;46.614;14.276;2022-08-20T09:10:52;19.80;99.90
12315;DHT22;23886;46.614;14.276;2022-08-20T09:13:20;19.90;99.90
12315;DHT22;23886;46.614;14.276;2022-08-20T09:15:48;20.00;99.90
12315;DHT22;23886;46.614;14.276;2022-08-20T09:18:15;20.20;99.90
12315;DHT22;23886;46.614;14.276;2022-08-20T09:20:42;20.20;99.90
12315;DHT22;23886;46.614;14.276;2022-08-20T09:23:09;20.50;99.90
12315;DHT22;23886;46.614;14.276;2022-08-20T09:25:36;20.70;99.90
12315;DHT22;23886;46.614;14.276;2022-08-20T09:28:03;21.10;99.90
12315;DHT22;23886;46.614;14.276;2022-08-20T09:30:30;21.00;99.90
12315;DHT22;23886;46.614;14.276;2022-08-20T09:32:59;20.90;99.90
12315;DHT22;23886;46.614;14.276;2022-08-20T09:35:27;20.70;99.90
12315;DHT22;23886;46.614;14.276;2022-08-20T09:37:54;20.60;99.90
12315;DHT22;23886;46.614;14.276;2022-08-20T09:40:21;20.70;99.90
12315;DHT22;23886;46.614;14.276;2022-08-20T09:42:49;20.80;99.90
12315;DHT22;23886;46.614;14.276;2022-08-20T09:45:16;21.00;99.90
12315;DHT22;23886;46.614;14.276;2022-08-20T09:47:43;21.10;99.90
12315;DHT22;23886;46.614;14.276;2022-08-20T09:50:12;21.10;99.90
12315;DHT22;23886;46.614;14.276;2022-08-20T09:52:42;20.90;99.90
12315;DHT22;23886;46.614;14.276;2022-08-20T09:55:17;21.10;99.90
12315;DHT22;23886;46.614;14.276;2022-08-20T09:57:45;20.90;99.90
12315;DHT22;23886;46.614;14.276;2022-08-20T10:00:13;21.00;99.90
12315;DHT22;23886;46.614;14.276;2022-08-20T10:02:41;21.20;99.90
12315;DHT22;23886;46.614;14.276;2022-08-20T10:05:09;21.30;99.90
12315;DHT22;23886;46.614;14.276;2022-08-20T10:07:39;21.60;99.90
12315;DHT22;23886;46.614;14.276;2022-08-20T10:10:09;22.00;99.90
12315;DHT22;23886;46.614;14.276;2022-08-20T10:12:36;22.30;99.90
12315;DHT22;23886;46.614;14.276;2022-08-20T10:15:06;22.70;99.90
12315;DHT22;23886;46.614;14.276;2022-08-20T10:17:36;22.40;99.90
12315;DHT22;23886;46.614;14.276;2022-08-20T10:20:04;22.20;99.90
12315;DHT22;23886;46.614;14.276;2022-08-20T10:22:31;22.40;99.90
12315;DHT22;23886;46.614;14.276;2022-08-20T10:24:59;22.30;99.90
12315;DHT22;23886;46.614;14.276;2022-08-20T10:27:26;22.30;99.90
12315;DHT22;23886;46.614;14.276;2022-08-20T10:29:53;22.30;99.90
12315;DHT22;23886;46.614;14.276;2022-08-20T10:32:20;22.00;99.90
12315;DHT22;23886;46.614;14.276;2022-08-20T10:34:47;22.00;99.90
12315;DHT22;23886;46.614;14.276;2022-08-20T10:37:15;22.30;99.90
12315;DHT22;23886;46.614;14.276;2022-08-20T10:39:43;22.10;99.90
12315;DHT22;23886;46.614;14.276;2022-08-20T10:42:12;22.10;99.90
12315;DHT22;23886;46.614;14.276;2022-08-20T10:44:39;22.10;99.90
12315;DHT22;23886;46.614;14.276;2022-08-20T10:47:15;22.10;99.90
12315;DHT22;23886;46.614;14.276;2022-08-20T10:49:43;22.30;99.90
12315;DHT22;23886;46.614;14.276;2022-08-20T10:52:10;22.20;99.90
12315;DHT22;23886;46.614;14.276;2022-08-20T10:54:37;22.30;99.90
12315;DHT22;23886;46.614;14.276;2022-08-20T10:57:07;22.30;99.90
12315;DHT22;23886;46.614;14.276;2022-08-20T10:59:39;22.60;99.90
12315;DHT22;23886;46.614;14.276;2022-08-20T11:02:07;23.00;99.90
12315;DHT22;23886;46.614;14.276;2022-08-20T11:04:34;23.10;99.90
12315;DHT22;23886;46.614;14.276;2022-08-20T11:07:12;23.30;99.90
12315;DHT22;23886;46.614;14.276;2022-08-20T11:09:39;23.10;99.90
12315;DHT22;23886;46.614;14.276;2022-08-20T11:12:07;23.00;99.90
12315;DHT22;23886;46.614;14.276;2022-08-20T11:14:34;23.60;99.90
12315;DHT22;23886;46.614;14.276;2022-08-20T11:17:03;23.90;99.90
12315;DHT22;23886;46.614;14.276;2022-08-20T11:19:30;23.80;99.90
12315;DHT22;23886;46.614;14.276;2022-08-20T11:21:57;23.90;99.90
12315;DHT22;23886;46.614;14.276;2022-08-20T11:24:24;23.90;99.90
12315;DHT22;23886;46.614;14.276;2022-08-20T11:26:51;23.80;99.90
12315;DHT22;23886;46.614;14.276;2022-08-20T11:29:19;23.90;99.90
12315;DHT22;23886;46.614;14.276;2022-08-20T11:31:47;24.00;99.90
12315;DHT22;23886;46.614;14.276;2022-08-20T11:34:15;24.50;99.90
12315;DHT22;23886;46.614;14.276;2022-08-20T11:36:43;24.50;99.90
12315;DHT22;23886;46.614;14.276;2022-08-20T11:39:10;24.40;99.90
12315;DHT22;23886;46.614;14.276;2022-08-20T11:41:37;24.70;99.90
12315;DHT22;23886;46.614;14.276;2022-08-20T11:44:06;24.80;99.90
12315;DHT22;23886;46.614;14.276;2022-08-20T11:46:33;25.00;99.90
12315;DHT22;23886;46.614;14.276;2022-08-20T11:49:00;24.50;99.90
12315;DHT22;23886;46.614;14.276;2022-08-20T11:51:29;24.80;99.90
12315;DHT22;23886;46.614;14.276;2022-08-20T11:53:56;25.00;99.90
12315;DHT22;23886;46.614;14.276;2022-08-20T11:56:23;25.20;99.90
12315;DHT22;23886;46.614;14.276;2022-08-20T11:58:50;24.70;99.90
12315;DHT22;23886;46.614;14.276;2022-08-20T12:01:17;24.60;99.90
12315;DHT22;23886;46.614;14.276;2022-08-20T12:03:44;24.40;99.90
12315;DHT22;23886;46.614;14.276;2022-08-20T12:06:11;24.50;99.90
12315;DHT22;23886;46.614;14.276;2022-08-20T12:08:39;24.60;99.90
12315;DHT22;23886;46.614;14.276;2022-08-20T12:11:06;24.40;99.90
12315;DHT22;23886;46.614;14.276;2022-08-20T12:13:35;24.50;99.90
12315;DHT22;23886;46.614;14.276;2022-08-20T12:16:03;24.50;99.90
12315;DHT22;23886;46.614;14.276;2022-08-20T12:18:31;24.60;99.90
12315;DHT22;23886;46.614;14.276;2022-08-20T12:20:58;25.80;99.90
12315;DHT22;23886;46.614;14.276;2022-08-20T12:23:25;26.70;99.50
12315;DHT22;23886;46.614;14.276;2022-08-20T12:25:53;27.60;97.00
12315;DHT22;23886;46.614;14.276;2022-08-20T12:28:21;27.80;96.60
12315;DHT22;23886;46.614;14.276;2022-08-20T12:30:48;27.70;96.10
12315;DHT22;23886;46.614;14.276;2022-08-20T12:33:15;28.00;94.80
12315;DHT22;23886;46.614;14.276;2022-08-20T12:35:42;27.70;93.20
12315;DHT22;23886;46.614;14.276;2022-08-20T12:38:09;27.70;93.00
12315;DHT22;23886;46.614;14.276;2022-08-20T12:40:36;27.60;93.00
12315;DHT22;23886;46.614;14.276;2022-08-20T12:43:05;27.50;92.40
12315;DHT22;23886;46.614;14.276;2022-08-20T12:45:33;27.30;93.10
12315;DHT22;23886;46.614;14.276;2022-08-20T12:48:02;27.60;93.60
12315;DHT22;23886;46.614;14.276;2022-08-20T12:50:29;28.50;94.00
12315;DHT22;23886;46.614;14.276;2022-08-20T12:52:57;28.00;92.00
12315;DHT22;23886;46.614;14.276;2022-08-20T12:55:23;27.80;92.90
12315;DHT22;23886;46.614;14.276;2022-08-20T12:57:53;26.70;93.10
12315;DHT22;23886;46.614;14.276;2022-08-20T13:00:25;25.90;94.50
12315;DHT22;23886;46.614;14.276;2022-08-20T13:02:54;25.90;95.20
12315;DHT22;23886;46.614;14.276;2022-08-20T13:05:22;26.00;94.90
12315;DHT22;23886;46.614;14.276;2022-08-20T13:07:49;26.00;94.50
12315;DHT22;23886;46.614;14.276;2022-08-20T13:10:20;26.30;93.90
12315;DHT22;23886;46.614;14.276;2022-08-20T13:12:47;25.90;94.80
12315;DHT22;23886;46.614;14.276;2022-08-20T13:15:15;26.00;95.00
12315;DHT22;23886;46.614;14.276;2022-08-20T13:17:43;26.30;96.90
12315;DHT22;23886;46.614;14.276;2022-08-20T13:20:13;26.20;94.00
12315;DHT22;23886;46.614;14.276;2022-08-20T13:22:41;25.90;94.90
12315;DHT22;23886;46.614;14.276;2022-08-20T13:25:09;26.00;94.10
12315;DHT22;23886;46.614;14.276;2022-08-20T13:27:38;25.90;94.60
12315;DHT22;23886;46.614;14.276;2022-08-20T13:30:07;25.90;94.90
12315;DHT22;23886;46.614;14.276;2022-08-20T13:32:35;26.00;95.10
12315;DHT22;23886;46.614;14.276;2022-08-20T13:35:04;26.50;95.20
12315;DHT22;23886;46.614;14.276;2022-08-20T13:37:31;26.50;93.30
12315;DHT22;23886;46.614;14.276;2022-08-20T13:39:59;26.50;93.70
12315;DHT22;23886;46.614;14.276;2022-08-20T13:42:26;26.70;93.80
12315;DHT22;23886;46.614;14.276;2022-08-20T13:44:53;26.80;95.70
12315;DHT22;23886;46.614;14.276;2022-08-20T13:47:23;27.10;93.00
12315;DHT22;23886;46.614;14.276;2022-08-20T13:49:54;26.50;95.10
12315;DHT22;23886;46.614;14.276;2022-08-20T13:52:24;26.90;93.50
12315;DHT22;23886;46.614;14.276;2022-08-20T13:54:51;26.80;92.90
12315;DHT22;23886;46.614;14.276;2022-08-20T13:57:19;26.60;94.60
12315;DHT22;23886;46.614;14.276;2022-08-20T13:59:48;25.90;95.70
12315;DHT22;23886;46.614;14.276;2022-08-20T14:02:17;25.80;94.60
12315;DHT22;23886;46.614;14.276;2022-08-20T14:04:44;25.60;94.40
12315;DHT22;23886;46.614;14.276;2022-08-20T14:07:13;25.90;94.60
12315;DHT22;23886;46.614;14.276;2022-08-20T14:09:44;26.30;95.70
12315;DHT22;23886;46.614;14.276;2022-08-20T14:12:12;26.30;94.60
12315;DHT22;23886;46.614;14.276;2022-08-20T14:14:39;26.30;95.30
12315;DHT22;23886;46.614;14.276;2022-08-20T14:17:14;26.40;95.50
12315;DHT22;23886;46.614;14.276;2022-08-20T14:19:42;26.50;93.80
12315;DHT22;23886;46.614;14.276;2022-08-20T14:22:09;26.30;94.30
12315;DHT22;23886;46.614;14.276;2022-08-20T14:24:36;26.30;95.30
12315;DHT22;23886;46.614;14.276;2022-08-20T14:27:06;26.50;94.80
12315;DHT22;23886;46.614;14.276;2022-08-20T14:29:33;26.10;95.60
12315;DHT22;23886;46.614;14.276;2022-08-20T14:32:00;26.20;95.00
12315;DHT22;23886;46.614;14.276;2022-08-20T14:34:28;25.80;95.30
12315;DHT22;23886;46.614;14.276;2022-08-20T14:36:55;25.70;95.80
12315;DHT22;23886;46.614;14.276;2022-08-20T14:39:23;26.00;95.10
12315;DHT22;23886;46.614;14.276;2022-08-20T14:41:50;26.00;95.20
12315;DHT22;23886;46.614;14.276;2022-08-20T14:44:19;26.40;95.70
12315;DHT22;23886;46.614;14.276;2022-08-20T14:46:46;26.60;95.70
12315;DHT22;23886;46.614;14.276;2022-08-20T14:49:13;26.50;96.20
12315;DHT22;23886;46.614;14.276;2022-08-20T14:51:40;26.20;96.20
12315;DHT22;23886;46.614;14.276;2022-08-20T14:54:06;25.70;97.30
12315;DHT22;23886;46.614;14.276;2022-08-20T14:56:33;25.20;97.10
12315;DHT22;23886;46.614;14.276;2022-08-20T14:59:00;24.80;97.70
12315;DHT22;23886;46.614;14.276;2022-08-20T15:01:29;24.80;98.30
12315;DHT22;23886;46.614;14.276;2022-08-20T15:03:56;24.60;98.80
12315;DHT22;23886;46.614;14.276;2022-08-20T15:06:23;24.60;98.30
12315;DHT22;23886;46.614;14.276;2022-08-20T15:08:50;24.30;98.90
12315;DHT22;23886;46.614;14.276;2022-08-20T15:11:17;24.30;99.50
12315;DHT22;23886;46.614;14.276;2022-08-20T15:13:44;24.10;99.00
12315;DHT22;23886;46.614;14.276;2022-08-20T15:16:10;24.10;99.90
12315;DHT22;23886;46.614;14.276;2022-08-20T15:18:39;24.00;98.80
12315;DHT22;23886;46.614;14.276;2022-08-20T15:21:08;23.90;99.10
12315;DHT22;23886;46.614;14.276;2022-08-20T15:23:34;23.80;99.10